Terminal Aerodrome Forecast
Issued by NWS

Home | Current Version | Previous Version | Graphics & Text | Print | Product List | Glossary Off
Versions: 1 2 3 4 5 6 7 8 9 10 11 12 13 14

000
FTUS43 KDDC 231700
TAFHYS
TAF
KHYS 231728Z 2318/2418 19026G33KT P6SM SCT070
     FM232300 19026G33KT P6SM VCTS BKN070CB
     FM240400 34025G35KT P6SM -TSRA BKN040CB
     FM240700 36018G28KT P6SM OVC040=

USA.gov is the U.S. government's official web portal to all federal, state and local government web resources and services.